Time;durP1;ratioP1;P1;durP2;ratioP2;P2;SDS_P1;SDS_P2;PMS_P1;PMS_P2;Temp;Humidity;BMP_temperature;BMP_pressure;BME280_temperature;BME280_humidity;BME280_pressure;Samples;Min_cycle;Max_cycle;Signal;HPM_P1;HPM_P2
2022/03/01 00:03:43;;;;;;;75.72;42.35;;;;;;;-2.18;74.26;98194.92;1409536;101;21162;-84
2022/03/01 00:13:08;;;;;;;88.10;50.43;;;;;;;-2.16;74.00;98196.52;1408551;100;21126;-83
2022/03/01 00:16:06;;;;;;;;;;;;;;;;;;;;;
2022/03/01 00:18:57;;;;;;;122.33;57.10;;;;;;;-2.18;74.42;98193.65;1456032;98;21122;-83
2022/03/01 00:21:54;;;;;;;152.95;71.65;;;;;;;-2.14;74.64;98182.00;1446344;98;21194;-83
2022/03/01 00:24:48;;;;;;;89.13;48.25;;;;;;;-2.19;74.79;98180.53;1441098;100;21160;-83
2022/03/01 00:31:08;;;;;;;54.13;29.55;;;;;;;-2.25;75.64;98175.25;1535885;91;21026;-84
2022/03/01 00:34:23;;;;;;;42.93;28.70;;;;;;;-2.23;75.77;98165.00;1587799;90;21503;-84
2022/03/01 00:46:32;;;;;;;;;;;;;;;;;;;;;
2022/03/01 00:49:31;;;;;;;67.12;40.80;;;;;;;-2.48;75.47;98179.09;1536534;92;21160;-83
2022/03/01 00:52:55;;;;;;;71.95;44.73;;;;;;;-2.50;75.52;98175.77;1562985;91;21137;-83
2022/03/01 00:59:43;;;;;;;;;;;;;;;;;;;;;
2022/03/01 01:02:54;;;;;;;;;;;;;;;;;;;;;
2022/03/01 01:05:09;;;;;;;81.35;47.75;;;;;;;-2.59;75.31;98136.69;1544175;91;21191;-82
2022/03/01 01:08:22;;;;;;;69.40;43.55;;;;;;;-2.36;75.32;98171.00;1538976;92;21207;-83
2022/03/01 01:10:50;;;;;;;79.75;44.85;;;;;;;-2.37;75.10;98172.33;1587508;82;21083;-83
2022/03/01 01:16:45;;;;;;;73.28;44.70;;;;;;;-2.74;75.24;98153.34;1564748;92;21107;-83
2022/03/01 01:19:29;;;;;;;61.10;41.70;;;;;;;-2.57;75.19;98181.98;1568837;91;22245;-83
2022/03/01 01:25:42;;;;;;;;;;;;;;;;;;;;;
2022/03/01 01:28:37;;;;;;;;;;;;;;;;;;;;;
2022/03/01 01:31:28;;;;;;;66.30;39.88;;;;;;;-2.58;75.41;98181.61;1670586;85;21035;-83
2022/03/01 01:34:09;;;;;;;64.82;41.28;;;;;;;-2.56;75.40;98187.47;1613987;88;21043;-83
2022/03/01 01:37:02;;;;;;;59.65;37.35;;;;;;;-2.60;75.30;98175.30;1565667;89;21082;-83
2022/03/01 01:42:38;;;;;;;62.62;40.75;;;;;;;-2.70;75.35;98183.32;1543371;91;21064;-83
2022/03/01 01:45:35;;;;;;;;;;;;;;;;;;;;;
2022/03/01 01:48:06;;;;;;;61.73;39.45;;;;;;;-2.72;75.58;98175.30;1649407;87;21164;-82
2022/03/01 01:50:42;;;;;;;59.00;37.48;;;;;;;-2.72;75.49;98177.02;1621346;88;21054;-83
2022/03/01 01:53:38;;;;;;;62.38;38.92;;;;;;;-2.73;75.62;98181.28;1632409;88;21134;-82
2022/03/01 01:56:11;;;;;;;66.12;38.00;;;;;;;-2.76;75.50;98181.84;1631153;88;21054;-84
2022/03/01 01:58:43;;;;;;;58.80;37.95;;;;;;;-2.78;75.68;98181.04;1583603;90;21055;-82
2022/03/01 02:01:23;;;;;;;60.60;37.70;;;;;;;-2.79;75.99;98179.38;1599812;88;21132;-82
2022/03/01 02:04:00;;;;;;;59.20;36.40;;;;;;;-2.77;76.04;98180.16;1657067;86;21141;-83
2022/03/01 02:06:57;;;;;;;58.73;35.20;;;;;;;-2.78;76.28;98178.05;1635050;86;21219;-83
2022/03/01 02:10:06;;;;;;;55.65;35.75;;;;;;;-2.79;76.35;98172.58;1670583;84;21010;-83
2022/03/01 02:12:44;;;;;;;56.90;36.13;;;;;;;-2.77;76.27;98174.66;1599034;86;21115;-83
2022/03/01 02:15:28;;;;;;;55.23;37.48;;;;;;;-2.75;76.30;98169.50;1663686;86;21132;-83
2022/03/01 02:18:08;;;;;;;54.70;37.10;;;;;;;-2.74;76.32;98173.27;1711946;83;21442;-83
2022/03/01 02:20:59;;;;;;;49.83;33.28;;;;;;;-2.72;76.37;98164.30;1714651;83;21012;-82
2022/03/01 02:23:28;;;;;;;49.60;33.67;;;;;;;-2.70;76.34;98165.06;1711813;83;21041;-82
2022/03/01 02:26:11;;;;;;;56.77;35.13;;;;;;;-2.67;76.31;98159.86;1714785;83;21006;-83
2022/03/01 02:28:49;;;;;;;50.60;33.78;;;;;;;-2.66;76.16;98164.50;1698488;84;21033;-83
2022/03/01 02:31:28;;;;;;;49.83;33.67;;;;;;;-2.69;75.93;98168.00;1715110;83;21084;-82
2022/03/01 02:33:59;;;;;;;44.63;31.07;;;;;;;-2.73;75.78;98163.91;1714928;83;21029;-82
2022/03/01 02:36:36;;;;;;;47.43;30.95;;;;;;;-2.76;75.61;98162.31;1698423;84;21021;-83
2022/03/01 02:39:16;;;;;;;41.15;30.05;;;;;;;-2.80;75.54;98163.28;1711111;83;20997;-82
2022/03/01 02:41:59;;;;;;;43.48;26.68;;;;;;;-2.80;75.45;98162.46;1715065;83;21086;-83
2022/03/01 02:44:31;;;;;;;33.23;20.25;;;;;;;-2.85;75.19;98170.71;1714819;83;21108;-82
2022/03/01 02:47:14;;;;;;;31.37;20.27;;;;;;;-2.93;75.09;98157.01;1715108;83;21045;-83
2022/03/01 02:49:46;;;;;;;19.95;13.45;;;;;;;-2.97;75.15;98163.52;1715062;83;21014;-82
2022/03/01 02:52:19;;;;;;;18.07;13.28;;;;;;;-2.99;75.21;98157.21;1712681;83;21120;-83
2022/03/01 02:54:53;;;;;;;12.78;11.15;;;;;;;-3.00;75.16;98158.54;1649366;86;21038;-83
2022/03/01 02:57:31;;;;;;;14.43;10.75;;;;;;;-3.04;75.18;98163.74;1721534;83;21051;-83
2022/03/01 03:00:09;;;;;;;17.00;11.28;;;;;;;-3.08;75.23;98155.84;1724931;83;21053;-82
2022/03/01 03:02:45;;;;;;;15.25;11.03;;;;;;;-3.14;75.21;98152.67;1724353;83;21467;-82
2022/03/01 03:05:40;;;;;;;14.98;9.25;;;;;;;-3.18;75.43;98155.77;1722998;83;20965;-83
2022/03/01 03:08:50;;;;;;;;;;;;;;;;;;;;;
2022/03/01 03:12:03;;;;;;;14.75;10.38;;;;;;;-3.20;75.65;98154.99;1677333;83;21017;-83
2022/03/01 03:15:02;;;;;;;14.00;9.95;;;;;;;-3.19;75.80;98159.20;1660448;85;21102;-84
2022/03/01 03:18:03;;;;;;;14.83;11.05;;;;;;;-3.18;75.84;98152.39;1587434;87;21094;-83
2022/03/01 03:20:30;;;;;;;12.15;9.58;;;;;;;-3.20;75.88;98160.52;1618800;87;21492;-83
2022/03/01 03:23:00;;;;;;;13.53;9.58;;;;;;;-3.21;75.88;98161.41;1639620;86;21082;-82
2022/03/01 03:25:28;;;;;;;16.75;10.30;;;;;;;-3.24;75.82;98166.16;1673323;83;21071;-82
2022/03/01 03:28:04;;;;;;;16.35;11.70;;;;;;;-3.25;75.81;98167.48;1700054;83;21077;-82
2022/03/01 03:30:33;;;;;;;12.78;10.25;;;;;;;-3.24;75.85;98164.89;1724793;83;20993;-82
2022/03/01 03:32:59;;;;;;;17.65;13.53;;;;;;;-3.22;75.81;98158.03;1724579;83;21012;-83
2022/03/01 03:35:27;;;;;;;16.40;13.30;;;;;;;-3.21;75.81;98155.87;1724945;83;20969;-82
2022/03/01 03:37:57;;;;;;;16.52;12.07;;;;;;;-3.17;75.78;98160.41;1724596;83;21506;-82
2022/03/01 03:40:25;;;;;;;14.07;10.30;;;;;;;-3.16;75.84;98148.08;1724830;83;21068;-83
2022/03/01 03:42:55;;;;;;;20.30;13.45;;;;;;;-3.13;75.67;98158.97;1724697;83;21055;-83
2022/03/01 03:45:22;;;;;;;18.12;12.50;;;;;;;-3.18;75.76;98157.48;1724188;83;21024;-82
2022/03/01 03:47:52;;;;;;;18.15;11.80;;;;;;;-3.21;75.67;98155.87;1721388;83;21064;-83
2022/03/01 03:50:23;;;;;;;17.05;12.13;;;;;;;-3.20;75.70;98154.16;1724400;83;21056;-83
2022/03/01 03:52:52;;;;;;;17.05;11.65;;;;;;;-3.20;75.64;98154.99;1724965;83;21063;-83
2022/03/01 03:55:18;;;;;;;14.78;11.78;;;;;;;-3.21;75.62;98153.78;1724790;83;21386;-82
2022/03/01 03:57:43;;;;;;;19.92;12.40;;;;;;;-3.23;75.52;98155.55;1724767;83;21029;-82
2022/03/01 04:00:18;;;;;;;17.10;11.40;;;;;;;-3.25;75.64;98155.61;1724977;83;21009;-83
2022/03/01 04:02:44;;;;;;;16.48;11.68;;;;;;;-3.27;75.46;98148.45;1724382;83;21024;-82
2022/03/01 04:05:12;;;;;;;18.55;12.80;;;;;;;-3.29;75.75;98143.03;1724857;83;21009;-83
2022/03/01 04:07:46;;;;;;;15.45;11.38;;;;;;;-3.31;75.68;98136.73;1700332;83;21044;-82
2022/03/01 04:10:12;;;;;;;;;;;;;;;-3.31;75.74;98129.11;1727090;83;20965;-82
2022/03/01 04:15:27;;;;;;;15.68;11.43;;;;;;;-3.34;75.94;98129.22;1666912;84;21492;-82
2022/03/01 04:17:55;;;;;;;16.75;11.00;;;;;;;-3.33;76.17;98120.27;1711527;84;21080;-82
2022/03/01 04:20:22;;;;;;;13.95;11.38;;;;;;;-3.36;75.92;98122.92;1711129;84;21057;-82
2022/03/01 04:22:48;;;;;;;16.42;11.20;;;;;;;-3.38;75.83;98123.86;1711529;84;21336;-83
2022/03/01 04:25:16;;;;;;;13.35;11.10;;;;;;;-3.44;75.89;98118.97;1711481;84;21436;-82
2022/03/01 04:27:42;;;;;;;12.43;10.08;;;;;;;-3.43;75.92;98114.27;1690407;84;21530;-82
2022/03/01 04:30:11;;;;;;;13.98;10.82;;;;;;;-3.48;75.85;98106.82;1711630;84;20985;-82
2022/03/01 04:32:37;;;;;;;13.58;10.58;;;;;;;-3.50;75.89;98103.95;1711457;84;21097;-82
2022/03/01 04:35:04;;;;;;;14.25;9.85;;;;;;;-3.46;75.97;98108.03;1711704;83;21045;-82
2022/03/01 04:37:32;;;;;;;15.35;12.35;;;;;;;-3.45;75.87;98105.88;1711670;84;21050;-83
2022/03/01 04:39:57;;;;;;;14.03;10.20;;;;;;;-3.49;75.88;98100.08;1711201;84;21488;-83
2022/03/01 04:42:26;;;;;;;12.68;9.58;;;;;;;-3.73;76.05;98071.28;1714949;84;21093;-82
2022/03/01 04:44:54;;;;;;;13.05;9.78;;;;;;;-3.54;75.98;98104.95;1711546;83;20981;-83
2022/03/01 04:50:31;;;;;;;12.07;9.23;;;;;;;-3.55;76.07;98098.20;1689130;83;21025;-82
2022/03/01 04:53:17;;;;;;;11.60;8.85;;;;;;;-3.49;76.07;98097.98;1711414;84;21089;-82
2022/03/01 04:55:43;;;;;;;11.73;8.80;;;;;;;-3.50;76.02;98099.69;1711431;83;21065;-82
2022/03/01 04:58:09;;;;;;;11.18;8.08;;;;;;;-3.54;75.96;98087.16;1711587;84;21074;-82
2022/03/01 05:00:36;;;;;;;10.82;7.58;;;;;;;-3.60;75.85;98089.45;1711219;84;21017;-82
2022/03/01 05:03:02;;;;;;;9.50;7.35;;;;;;;-3.60;75.86;98089.45;1711414;84;21466;-82
2022/03/01 05:05:27;;;;;;;11.33;8.13;;;;;;;-3.60;76.05;98089.89;1711534;84;21429;-83
2022/03/01 05:07:54;;;;;;;9.28;7.60;;;;;;;-3.60;76.11;98087.34;1711363;84;21057;-82
2022/03/01 05:10:23;;;;;;;11.50;8.33;;;;;;;-3.81;76.15;98045.30;1691369;84;20993;-82
2022/03/01 05:12:55;;;;;;;8.40;7.50;;;;;;;-3.54;76.08;98080.36;1711515;84;21076;-82
2022/03/01 05:15:23;;;;;;;10.20;7.37;;;;;;;-3.52;76.12;98081.58;1717721;82;21143;-83
2022/03/01 05:17:49;;;;;;;8.68;6.72;;;;;;;-3.57;76.08;98072.02;1724857;83;21446;-83
2022/03/01 05:20:16;;;;;;;8.15;7.35;;;;;;;-3.49;76.02;98084.00;1724478;83;20995;-83
2022/03/01 05:22:42;;;;;;;15.05;10.20;;;;;;;-3.48;75.96;98103.45;1724888;83;21430;-82
2022/03/01 05:25:12;;;;;;;9.68;7.08;;;;;;;-3.47;75.96;98084.77;1700179;83;20996;-82
2022/03/01 05:27:39;;;;;;;8.18;7.42;;;;;;;-3.45;75.92;98083.84;1725056;83;21024;-83
2022/03/01 05:30:07;;;;;;;8.68;7.50;;;;;;;-3.44;75.77;98091.84;1741066;80;20965;-82
2022/03/01 05:32:34;;;;;;;10.13;7.00;;;;;;;-3.44;75.67;98085.48;1753232;82;21047;-83
2022/03/01 05:35:01;;;;;;;7.50;6.53;;;;;;;-3.44;75.58;98087.20;1728638;82;21438;-82
2022/03/01 05:37:46;;;;;;;9.43;6.83;;;;;;;-3.45;75.54;98087.64;1752987;82;21068;-83
2022/03/01 05:41:26;;;;;;;8.75;6.08;;;;;;;-3.46;75.51;98088.97;1728326;83;21051;-83
2022/03/01 05:44:02;;;;;;;;;;;;;;;;;;;;;
2022/03/01 05:46:11;;;;;;;7.75;5.78;;;;;;;-3.44;75.59;98077.86;1641524;83;21040;-83
2022/03/01 05:48:42;;;;;;;9.45;6.72;;;;;;;-3.42;75.78;98074.86;1743902;82;21036;-83
2022/03/01 05:51:56;;;;;;;;;;;;;;;;;;;;;
2022/03/01 05:54:17;;;;;;;7.62;6.05;;;;;;;-3.49;75.60;98078.92;1715981;82;21120;-82
2022/03/01 05:56:42;;;;;;;7.12;5.58;;;;;;;-3.53;75.58;98080.75;1751739;82;21084;-83
2022/03/01 05:59:08;;;;;;;6.78;5.62;;;;;;;-3.55;75.58;98085.50;1752024;82;21034;-83
2022/03/01 06:01:34;;;;;;;7.85;5.72;;;;;;;-3.56;75.63;98082.13;1763620;80;21344;-82
2022/03/01 06:04:00;;;;;;;8.33;7.05;;;;;;;-3.51;75.71;98092.12;1772375;81;21019;-83
2022/03/01 06:06:26;;;;;;;7.45;6.08;;;;;;;-3.51;75.62;98093.40;1772262;81;21335;-83
2022/03/01 06:08:54;;;;;;;7.50;5.78;;;;;;;-3.50;75.64;98092.07;1772982;81;21048;-83
2022/03/01 06:11:23;;;;;;;5.97;5.22;;;;;;;-3.46;75.70;98092.34;1772454;80;21965;-83
2022/03/01 06:13:49;;;;;;;9.23;5.37;;;;;;;-3.42;75.65;98095.19;1772996;81;21347;-83
2022/03/01 06:16:14;;;;;;;7.08;5.67;;;;;;;-3.37;75.53;98097.56;1773623;80;21063;-82
2022/03/01 06:18:43;;;;;;;11.90;6.47;;;;;;;-3.33;75.58;98099.10;1781060;80;21014;-83
2022/03/01 06:21:09;;;;;;;6.22;5.17;;;;;;;-3.33;75.37;98091.48;1780760;80;21003;-84
2022/03/01 06:24:00;;;;;;;;;;;;;;;;;;;;;
2022/03/01 06:26:26;;;;;;;6.35;5.60;;;;;;;-3.23;75.49;98097.08;1730100;80;21406;-82
2022/03/01 06:29:00;;;;;;;6.30;5.25;;;;;;;-3.23;75.36;98090.72;1777766;80;21111;-82
2022/03/01 06:31:49;;;;;;;6.72;5.42;;;;;;;-3.22;75.29;98090.66;1780013;80;21004;-82
2022/03/01 06:34:20;;;;;;;5.65;4.97;;;;;;;-3.19;75.26;98088.45;1783927;79;21057;-82
2022/03/01 06:36:41;;;;;;;6.55;5.37;;;;;;;-3.20;75.16;98088.89;1778632;80;21014;-82
2022/03/01 06:39:08;;;;;;;8.35;5.30;;;;;;;-3.17;75.27;98083.69;1786110;80;21374;-82
2022/03/01 06:41:46;;;;;;;5.92;5.35;;;;;;;-3.13;75.28;98085.23;1786048;80;21027;-83
2022/03/01 06:44:21;;;;;;;5.85;4.08;;;;;;;-3.09;75.32;98089.34;1729629;80;21079;-82
2022/03/01 06:46:44;;;;;;;5.87;4.58;;;;;;;-3.08;75.42;98087.19;1783217;80;21034;-82
2022/03/01 06:49:09;;;;;;;5.65;4.35;;;;;;;-3.09;75.36;98093.16;1785141;79;21007;-82
2022/03/01 06:51:35;;;;;;;7.33;4.80;;;;;;;-3.08;75.43;98100.34;1786057;80;21362;-83
2022/03/01 06:54:01;;;;;;;15.50;11.93;;;;;;;-3.10;75.32;98095.28;1732937;80;20991;-82
2022/03/01 06:56:27;;;;;;;9.73;6.30;;;;;;;-3.07;75.33;98104.09;1786156;80;20972;-82
2022/03/01 06:58:53;;;;;;;11.28;6.95;;;;;;;-3.02;75.32;98105.19;1786232;80;20971;-82
2022/03/01 07:01:20;;;;;;;15.70;11.85;;;;;;;-3.00;75.21;98105.13;1786187;80;21369;-82
2022/03/01 07:03:46;;;;;;;22.95;15.63;;;;;;;-2.99;75.31;98105.52;1786229;80;21063;-82
2022/03/01 07:06:12;;;;;;;18.60;14.03;;;;;;;-2.98;75.39;98103.36;1786310;80;21023;-83
2022/03/01 07:08:38;;;;;;;36.70;24.87;;;;;;;-2.97;75.39;98105.84;1786234;80;21018;-82
2022/03/01 07:11:04;;;;;;;43.87;28.05;;;;;;;-2.99;75.50;98098.72;1786110;80;21362;-82
2022/03/01 07:13:32;;;;;;;42.33;29.42;;;;;;;-2.97;75.74;98103.30;1786387;80;20916;-83
2022/03/01 07:15:57;;;;;;;45.00;28.12;;;;;;;-2.88;75.92;98110.61;1778800;80;21047;-83
2022/03/01 07:18:23;;;;;;;41.18;27.70;;;;;;;-2.84;75.74;98112.14;1766643;80;21098;-83
2022/03/01 07:20:51;;;;;;;46.23;29.18;;;;;;;-2.81;75.71;98102.29;1766787;80;21397;-82
2022/03/01 07:23:17;;;;;;;41.92;26.45;;;;;;;-2.74;75.88;98110.09;1766695;80;20980;-83
2022/03/01 07:25:43;;;;;;;37.33;23.38;;;;;;;-2.61;76.12;98107.89;1766779;80;20951;-82
2022/03/01 07:28:08;;;;;;;41.95;25.92;;;;;;;-2.50;75.96;98112.14;1766894;80;20972;-83
2022/03/01 07:30:36;;;;;;;33.75;23.70;;;;;;;-2.43;75.90;98110.59;1766733;81;20998;-83
2022/03/01 07:33:59;;;;;;;;;;;;;;;;;;;;;
2022/03/01 07:36:14;;;;;;;38.23;25.82;;;;;;;-2.33;75.85;98108.49;1709067;83;21049;-83
2022/03/01 07:38:50;;;;;;;35.33;24.02;;;;;;;-2.28;75.96;98115.53;1754190;81;20995;-83
2022/03/01 07:41:17;;;;;;;24.25;16.60;;;;;;;-2.19;76.09;98115.59;1765722;81;21398;-83
2022/03/01 07:47:30;;;;;;;;;;;;;;;;;;;;;
2022/03/01 07:56:52;;;;;;;;;;;;;;;;;;;;;
2022/03/01 08:00:21;;;;;;;;;;;;;;;;;;;;;
2022/03/01 08:02:52;;;;;;;49.25;29.90;;;;;;;-1.57;76.02;98116.86;1432452;99;21574;-83
2022/03/01 08:05:46;;;;;;;53.50;34.88;;;;;;;-1.52;76.32;98115.38;1482522;95;21100;-83
2022/03/01 08:08:24;;;;;;;49.85;31.05;;;;;;;-1.51;76.11;98120.86;1500980;92;21204;-83
2022/03/01 08:10:58;;;;;;;47.73;31.73;;;;;;;-1.46;76.18;98106.22;1539378;92;21253;-83
2022/03/01 08:13:33;;;;;;;43.30;29.42;;;;;;;-1.39;75.93;98120.35;1612483;87;21018;-82
2022/03/01 08:19:00;;;;;;;41.98;28.73;;;;;;;-1.22;75.62;98109.42;1627896;87;21188;-83
2022/03/01 08:21:33;;;;;;;47.78;29.67;;;;;;;-1.18;75.24;98087.98;1726731;83;21013;-83
2022/03/01 08:24:16;;;;;;;31.95;19.07;;;;;;;-1.03;75.34;98096.69;1714922;83;21101;-83
2022/03/01 08:26:53;;;;;;;27.93;18.85;;;;;;;-0.90;74.30;98090.14;1726637;82;21058;-84
2022/03/01 08:29:20;;;;;;;23.42;14.45;;;;;;;-0.75;73.96;98087.34;1713739;82;21102;-83
2022/03/01 08:32:03;;;;;;;31.10;22.00;;;;;;;-0.68;72.62;98094.64;1726525;83;21445;-82
2022/03/01 08:34:39;;;;;;;16.65;11.22;;;;;;;-0.62;73.61;98085.89;1703204;84;21087;-84
2022/03/01 08:37:26;;;;;;;23.42;15.95;;;;;;;-0.51;70.44;98095.14;1708723;83;21466;-83
2022/03/01 08:40:09;;;;;;;31.33;20.65;;;;;;;-0.38;72.43;98085.18;1683453;82;21504;-83
2022/03/01 08:42:38;;;;;;;22.98;16.40;;;;;;;-0.27;72.65;98089.34;1723313;82;21010;-83
2022/03/01 08:45:31;;;;;;;28.35;16.32;;;;;;;-0.17;72.37;98087.98;1723193;82;21114;-83
2022/03/01 08:48:44;;;;;;;19.90;12.75;;;;;;;-0.07;71.00;98087.10;1729492;80;20995;-83
2022/03/01 08:51:15;;;;;;;16.73;11.30;;;;;;;-0.03;70.15;98072.81;1726880;81;21014;-83
2022/03/01 08:53:53;;;;;;;18.23;11.65;;;;;;;0.03;69.45;98082.38;1729066;83;21066;-83
2022/03/01 08:56:35;;;;;;;15.75;10.03;;;;;;;0.06;69.41;98077.94;1726351;82;20990;-82
2022/03/01 08:59:10;;;;;;;16.10;11.40;;;;;;;0.15;69.08;98074.09;1726938;82;21037;-83
2022/03/01 09:04:53;;;;;;;23.35;15.10;;;;;;;0.33;69.18;98069.36;1700726;82;21015;-84
2022/03/01 09:07:26;;;;;;;15.45;9.95;;;;;;;0.38;68.98;98064.84;1706463;83;20995;-83
2022/03/01 09:10:08;;;;;;;16.67;10.80;;;;;;;0.39;67.90;98056.26;1638304;87;21111;-83
2022/03/01 09:12:47;;;;;;;18.70;11.65;;;;;;;0.46;66.63;98052.92;1699619;83;21030;-83
2022/03/01 09:15:32;;;;;;;12.30;8.78;;;;;;;0.51;67.63;98053.08;1669515;86;21021;-83
2022/03/01 09:18:11;;;;;;;16.75;12.75;;;;;;;0.59;66.41;98038.61;1715398;83;21490;-83
2022/03/01 09:20:45;;;;;;;16.50;11.10;;;;;;;0.67;66.85;98042.06;1717187;83;21084;-83
2022/03/01 09:23:13;;;;;;;15.80;9.60;;;;;;;0.70;65.90;98038.88;1719183;83;21397;-83
2022/03/01 09:28:29;;;;;;;16.62;11.12;;;;;;;0.76;66.66;98025.76;1684408;83;21029;-83
2022/03/01 09:31:23;;;;;;;14.80;10.23;;;;;;;0.83;67.06;98030.12;1717949;83;21052;-84
2022/03/01 09:37:21;;;;;;;20.20;11.33;;;;;;;0.96;65.12;98018.30;1632092;86;21361;-83
2022/03/01 09:42:40;;;;;;;;;;;;;;;1.10;65.81;98025.23;1570280;90;21134;-83
2022/03/01 09:45:26;;;;;;;18.70;14.07;;;;;;;1.15;65.51;98017.70;1570605;90;20131;-83
2022/03/01 09:48:02;;;;;;;14.73;9.53;;;;;;;1.18;65.26;98020.09;1598030;87;21081;-83
2022/03/01 09:51:06;;;;;;;19.55;14.90;;;;;;;1.23;63.56;98016.44;1583319;90;21106;-83
2022/03/01 09:53:46;;;;;;;20.35;12.88;;;;;;;1.25;64.99;98013.34;1522672;92;21101;-83
2022/03/01 09:56:35;;;;;;;18.95;13.93;;;;;;;1.31;64.68;98004.88;1482217;97;21127;-83
2022/03/01 09:59:33;;;;;;;20.85;12.33;;;;;;;1.35;64.22;98013.22;1470064;94;21074;-83
2022/03/01 10:02:49;;;;;;;17.62;10.05;;;;;;;1.39;64.21;98011.67;1471403;94;21133;-83
2022/03/01 10:12:08;;;;;;;19.40;12.10;;;;;;;1.45;61.86;98007.48;1343601;105;21128;-84
2022/03/01 10:20:20;;;;;;;12.73;8.88;;;;;;;1.48;62.46;98011.63;1373169;102;21178;-83
2022/03/01 10:34:15;;;;;;;15.90;8.90;;;;;;;1.71;57.96;98001.36;1367911;104;21538;-84
2022/03/01 10:37:21;;;;;;;;;;;;;;;;;;;;;
2022/03/01 10:40:51;;;;;;;;;;;;;;;;;;;;;
2022/03/01 10:44:14;;;;;;;;;;;;;;;;;;;;;
2022/03/01 11:03:44;;;;;;;;;;;;;;;;;;;;;
2022/03/01 11:26:43;;;;;;;;;;;;;;;;;;;;;
2022/03/01 11:37:13;;;;;;;;;;;;;;;;;;;;;
2022/03/01 11:40:43;;;;;;;;;;;;;;;;;;;;;
2022/03/01 12:32:56;;;;;;;;;;;;;;;;;;;;;
2022/03/01 12:36:03;;;;;;;11.63;8.38;;;;;;;2.87;53.69;97850.23;1338723;104;21229;-85
2022/03/01 12:45:52;;;;;;;;;;;;;;;;;;;;;
2022/03/01 12:48:39;;;;;;;;;;;;;;;;;;;;;
2022/03/01 12:52:01;;;;;;;11.20;7.55;;;;;;;3.10;50.27;97840.25;1401386;102;21507;-84
2022/03/01 13:03:33;;;;;;;8.55;5.70;;;;;;;3.03;48.35;97826.14;1361504;105;21676;-84
2022/03/01 13:06:13;;;;;;;10.23;7.28;;;;;;;2.96;47.33;97818.02;1321369;107;21180;-84
2022/03/01 13:08:53;;;;;;;9.05;6.40;;;;;;;2.98;47.58;97807.19;1334725;103;21238;-83
2022/03/01 13:11:37;;;;;;;9.15;6.12;;;;;;;3.01;48.78;97808.27;1464038;93;21089;-84
2022/03/01 13:17:33;;;;;;;8.33;6.70;;;;;;;3.11;46.40;97800.80;1510423;95;21444;-84
2022/03/01 13:20:09;;;;;;;10.40;5.65;;;;;;;3.11;46.98;97804.65;1510775;95;21100;-84
2022/03/01 13:22:42;;;;;;;9.88;5.90;;;;;;;3.13;46.19;97800.23;1632451;88;21129;-84
2022/03/01 13:25:12;;;;;;;11.68;6.15;;;;;;;3.14;45.97;97792.89;1631960;86;21049;-84
2022/03/01 13:27:49;;;;;;;9.28;5.35;;;;;;;3.07;43.68;97782.64;1610881;88;21065;-84
2022/03/01 13:30:25;;;;;;;7.83;4.70;;;;;;;3.10;43.95;97779.44;1632046;88;21124;-84
2022/03/01 13:33:09;;;;;;;10.60;7.25;;;;;;;3.15;44.37;97771.41;1631897;86;21095;-84
2022/03/01 13:35:42;;;;;;;8.40;5.95;;;;;;;3.18;45.94;97764.78;1610251;88;21105;-84
2022/03/01 13:38:08;;;;;;;10.68;6.40;;;;;;;3.27;46.04;97765.47;1632242;88;21071;-84
2022/03/01 13:40:43;;;;;;;10.98;7.10;;;;;;;3.34;46.28;97768.44;1632230;87;21125;-84
2022/03/01 13:43:17;;;;;;;;;;;;;;;3.35;44.87;97768.33;1613926;88;21097;-84
2022/03/01 13:45:43;;;;;;;13.98;8.23;;;;;;;3.34;46.05;97765.87;1632149;86;20390;-84
2022/03/01 13:48:13;;;;;;;8.50;6.15;;;;;;;3.37;46.83;97759.23;1632226;87;21373;-84
2022/03/01 13:50:41;;;;;;;10.03;6.50;;;;;;;3.42;46.29;97755.45;1632291;88;21045;-84
2022/03/01 13:53:17;;;;;;;12.60;7.62;;;;;;;3.46;47.15;97756.88;1632273;88;21053;-84
2022/03/01 13:55:44;;;;;;;9.88;6.90;;;;;;;3.48;46.87;97751.17;1632317;88;20998;-84
2022/03/01 13:58:20;;;;;;;9.60;6.53;;;;;;;3.48;45.53;97752.92;1632304;87;21437;-84
2022/03/01 14:00:48;;;;;;;11.97;6.47;;;;;;;3.38;44.45;97749.31;1632434;88;21112;-84
2022/03/01 14:03:19;;;;;;;9.60;7.10;;;;;;;3.30;45.43;97751.13;1632318;88;21567;-84
2022/03/01 14:06:07;;;;;;;8.40;6.33;;;;;;;3.28;44.71;97751.70;1632401;88;21532;-84
2022/03/01 14:08:35;;;;;;;11.78;8.03;;;;;;;3.26;44.63;97745.38;1554199;87;21112;-85
2022/03/01 14:11:13;;;;;;;8.85;6.25;;;;;;;3.25;43.92;97745.02;1632428;88;21571;-84
2022/03/01 14:13:42;;;;;;;12.47;7.60;;;;;;;3.29;45.65;97746.92;1632463;88;21515;-84
2022/03/01 14:16:18;;;;;;;12.98;6.25;;;;;;;3.35;45.99;97743.10;1632343;88;21128;-84
2022/03/01 14:19:02;;;;;;;10.10;5.72;;;;;;;3.38;43.49;97746.28;1632387;88;20972;-84
2022/03/01 14:21:28;;;;;;;8.45;6.40;;;;;;;3.37;44.33;97736.93;1632191;88;21049;-84
2022/03/01 14:23:54;;;;;;;11.33;6.83;;;;;;;3.39;44.90;97736.83;1632275;86;21060;-84
2022/03/01 14:26:21;;;;;;;9.33;6.00;;;;;;;3.44;45.14;97734.33;1632369;87;21090;-84
2022/03/01 14:29:02;;;;;;;7.92;6.05;;;;;;;3.46;44.80;97735.03;1610553;88;21057;-84
2022/03/01 14:31:30;;;;;;;9.10;5.97;;;;;;;3.50;45.19;97733.89;1632406;86;21063;-84
2022/03/01 14:33:56;;;;;;;8.00;5.08;;;;;;;3.54;44.69;97730.64;1632369;87;21166;-84
2022/03/01 14:36:21;;;;;;;9.55;5.95;;;;;;;3.49;44.21;97727.11;1632455;88;21072;-84
2022/03/01 14:38:47;;;;;;;8.83;5.95;;;;;;;3.47;44.92;97728.97;1632551;87;20982;-84
2022/03/01 14:41:13;;;;;;;7.87;5.47;;;;;;;3.47;43.73;97717.88;1632447;87;21161;-84
2022/03/01 14:43:39;;;;;;;9.93;6.50;;;;;;;3.43;45.35;97715.98;1632341;88;21165;-84
2022/03/01 14:46:05;;;;;;;11.48;6.67;;;;;;;3.37;45.05;97711.23;1632485;88;21045;-84
2022/03/01 14:48:31;;;;;;;9.65;6.78;;;;;;;3.23;45.07;97709.60;1632328;88;21127;-84
2022/03/01 14:50:56;;;;;;;11.90;7.42;;;;;;;3.11;45.73;97705.77;1632359;87;20994;-84
2022/03/01 14:53:22;;;;;;;10.85;7.05;;;;;;;3.00;45.91;97704.73;1632425;88;20994;-84
2022/03/01 14:56:16;;;;;;;9.33;6.30;;;;;;;2.93;45.95;97702.23;1632154;88;21670;-84
2022/03/01 14:58:41;;;;;;;12.05;6.62;;;;;;;2.84;46.14;97693.84;1632530;88;21400;-84
2022/03/01 15:01:07;;;;;;;12.58;7.65;;;;;;;2.81;46.49;97693.23;1632335;87;21034;-84
2022/03/01 15:03:33;;;;;;;8.53;5.80;;;;;;;2.79;46.81;97696.36;1632336;87;21077;-84
2022/03/01 15:05:59;;;;;;;10.53;6.42;;;;;;;2.75;45.33;97688.02;1632323;88;21132;-84
2022/03/01 15:08:24;;;;;;;8.45;6.45;;;;;;;2.75;46.45;97682.88;1632356;87;21070;-84
2022/03/01 15:10:50;;;;;;;9.58;6.50;;;;;;;2.78;47.08;97681.89;1610820;88;21110;-84
2022/03/01 15:13:16;;;;;;;9.08;6.80;;;;;;;2.77;46.47;97676.39;1632442;87;21341;-84
2022/03/01 15:15:42;;;;;;;7.05;5.28;;;;;;;2.76;46.66;97675.55;1632424;87;21089;-84
2022/03/01 15:18:07;;;;;;;11.03;6.53;;;;;;;2.78;45.75;97681.89;1632249;87;21096;-84
2022/03/01 15:20:33;;;;;;;9.20;7.17;;;;;;;2.69;46.25;97673.03;1632518;87;21057;-84
2022/03/01 15:22:59;;;;;;;9.78;7.20;;;;;;;2.64;46.64;97675.09;1632292;87;21129;-83
2022/03/01 15:25:25;;;;;;;8.90;7.03;;;;;;;2.57;46.84;97675.11;1633495;86;21523;-84
2022/03/01 15:27:52;;;;;;;9.48;6.78;;;;;;;2.58;47.15;97670.34;1634258;87;21029;-84
2022/03/01 15:30:19;;;;;;;9.38;6.85;;;;;;;2.57;47.47;97666.95;1634125;87;21010;-84
2022/03/01 15:32:45;;;;;;;12.20;7.35;;;;;;;2.56;46.68;97673.02;1634125;87;21411;-84
2022/03/01 15:35:47;;;;;;;10.93;6.53;;;;;;;2.52;46.39;97666.91;1634215;87;21034;-84
2022/03/01 15:38:13;;;;;;;7.45;5.37;;;;;;;2.48;46.75;97670.14;1618428;86;21025;-84
2022/03/01 15:40:39;;;;;;;10.53;7.15;;;;;;;2.39;45.34;97667.70;1634102;87;21110;-84
2022/03/01 15:43:04;;;;;;;7.42;5.58;;;;;;;2.34;46.54;97663.80;1634125;88;21053;-85
2022/03/01 15:48:51;;;;;;;10.20;6.65;;;;;;;2.25;45.33;97666.48;1550678;88;21519;-84
2022/03/01 16:08:55;;;;;;;9.68;6.67;;;;;;;1.82;49.67;97664.56;1360380;105;21261;-84
2022/03/01 16:11:21;;;;;;;8.78;6.20;;;;;;;1.70;49.18;97670.44;1435116;92;21107;-84
2022/03/01 16:13:47;;;;;;;10.13;6.75;;;;;;;1.62;49.46;97668.34;1611188;87;20995;-84
2022/03/01 16:21:25;;;;;;;;;;;;;;;;;;;;;
2022/03/01 16:22:52;;;;;;;8.05;5.60;;;;;;;1.40;49.76;97670.58;1528000;88;21090;-84
2022/03/01 16:25:18;;;;;;;9.10;5.92;;;;;;;1.29;50.04;97672.95;1636849;86;21118;-83
2022/03/01 16:27:45;;;;;;;7.83;5.42;;;;;;;1.19;51.06;97679.93;1637182;87;21129;-83
2022/03/01 16:30:11;;;;;;;7.85;5.50;;;;;;;1.08;51.39;97675.90;1636632;88;21485;-83
2022/03/01 16:32:38;;;;;;;8.50;6.42;;;;;;;0.95;51.55;97672.88;1636845;88;21338;-83
2022/03/01 16:35:05;;;;;;;8.75;5.65;;;;;;;0.74;51.95;97657.05;1637115;88;21007;-83